Main page
METAR-TAF:

METAR-TAF

Airports :

East Midlands Airport

East Midlands, England

latitude: 52-50N, longitude: 001-20W, elevation: 94 m

Current weather observation

The report was made 37 minutes ago, at 20:50 UTC
Wind 3 kt from the East/Southeast
Temperature 16°C
Humidity 63%
Pressure 1023 hPa
Visibility 10 km or more
no clouds below 1500 m and no cumulonimbus

METAR: EGNX 192050Z 12003KT CAVOK 16/09 Q1023

Time: 22:27 (21:27 UTC)

Forecast

The report was made 4 hours and 29 minutes ago, at 16:58 UTC
Forecast valid from 19 at 18 UTC to 20 at 18 UTC
Wind 2 kt from variable directions
Visibility 10 km or more
Scattered clouds at a height of 4000 ft

TAF: EGNX 191658Z 1918/2018 VRB02KT 9999 SCT040

Weather observations and forecasts of more than 4000 airports (METAR and TAF reports).

The available stations are represented by yellow and red dots on the map.

Hover mouse over dot to see the name of the station.

Then click to see weather observations and forecasts.

To change the map : click on the green buttons with a black cross to zoom in, on the green button with a dash to zoom out, or on the green arrows for adjacent maps.


METAR-TAF: